createdAt,value
2023-03-06T00:01:10.472Z,99447.19
2023-03-06T00:03:38.643Z,99437.75
2023-03-06T00:06:07.133Z,99443.94
2023-03-06T00:08:37.825Z,99441.44
2023-03-06T00:11:06.314Z,99453.59
2023-03-06T00:13:35.153Z,99440.59
2023-03-06T00:16:03.390Z,99432.75
2023-03-06T00:18:31.573Z,99431.03
2023-03-06T00:20:59.783Z,99425.06
2023-03-06T00:23:28.592Z,99420.81
2023-03-06T00:25:58.012Z,99420.06
2023-03-06T00:28:26.294Z,99420.13
2023-03-06T00:30:54.372Z,99423.69
2023-03-06T00:33:22.432Z,99413.41
2023-03-06T00:35:50.648Z,99422.09
2023-03-06T00:38:18.721Z,99422.16
2023-03-06T00:40:46.811Z,99427.34
2023-03-06T00:43:16.244Z,99416.97
2023-03-06T00:45:44.421Z,99410.88
2023-03-06T00:48:12.630Z,99409.13
2023-03-06T00:50:40.703Z,99397.84
2023-03-06T00:53:11.086Z,99394.34
2023-03-06T00:55:39.341Z,99405.56
2023-03-06T00:58:07.449Z,99397.75
2023-03-06T01:00:37.042Z,99391.69
2023-03-06T01:03:05.597Z,99394.31
2023-03-06T01:05:36.621Z,99388.28
2023-03-06T01:08:05.439Z,99393.47
2023-03-06T01:10:34.052Z,99387.41
2023-03-06T01:13:02.261Z,99390.94
2023-03-06T01:15:30.343Z,99380.59
2023-03-06T01:18:00.630Z,99381.50
2023-03-06T01:20:29.989Z,99379.75
2023-03-06T01:22:58.213Z,99384.03
2023-03-06T01:25:27.040Z,99379.63
2023-03-06T01:27:55.147Z,99370.06
2023-03-06T01:30:23.278Z,99370.88
2023-03-06T01:32:51.448Z,99360.50
2023-03-06T01:35:20.944Z,99363.09
2023-03-06T01:37:49.037Z,99362.22
2023-03-06T01:40:17.104Z,99361.34
2023-03-06T01:42:46.841Z,99354.41
2023-03-06T01:45:52.900Z,99353.44
2023-03-06T01:48:24.377Z,99351.72
2023-03-06T01:50:55.396Z,99356.03
2023-03-06T01:53:23.538Z,99345.56
2023-03-06T01:55:51.843Z,99335.19
2023-03-06T01:58:20.553Z,99330.91
2023-03-06T02:00:48.775Z,99329.19
2023-03-06T02:03:21.869Z,99325.69
2023-03-06T02:05:50.250Z,99323.03
2023-03-06T02:08:22.770Z,99319.53
2023-03-06T02:10:59.804Z,99318.69
2023-03-06T02:13:28.090Z,99310.88
2023-03-06T02:15:56.669Z,99310.00
2023-03-06T02:18:24.874Z,99307.38
2023-03-06T02:20:57.612Z,99302.13
2023-03-06T02:23:33.370Z,99294.31
2023-03-06T02:26:03.757Z,99283.06
2023-03-06T02:28:32.232Z,99282.13
2023-03-06T02:31:00.542Z,99280.34
2023-03-06T02:33:30.545Z,99278.59
2023-03-06T02:36:01.334Z,99273.28
2023-03-06T02:38:33.085Z,99269.81
2023-03-06T02:41:04.931Z,99260.22
2023-03-06T02:43:35.582Z,99260.16
2023-03-06T02:46:03.942Z,99260.16
2023-03-06T02:48:32.142Z,99256.69
2023-03-06T02:51:00.984Z,99259.25
2023-03-06T02:53:29.318Z,99252.34
2023-03-06T02:56:00.195Z,99254.94
2023-03-06T02:58:30.201Z,99248.00
2023-03-06T03:00:58.435Z,99248.03
2023-03-06T03:03:27.710Z,99248.03
2023-03-06T03:05:56.998Z,99236.81
2023-03-06T03:08:30.134Z,99225.63
2023-03-06T03:11:02.405Z,99226.50
2023-03-06T03:13:38.858Z,99213.56
2023-03-06T03:16:11.852Z,99213.56
2023-03-06T03:18:40.097Z,99208.41
2023-03-06T03:21:09.134Z,99211.00
2023-03-06T03:23:37.400Z,99198.91
2023-03-06T03:26:09.393Z,99203.28
2023-03-06T03:28:41.861Z,99192.88
2023-03-06T03:31:12.385Z,99185.97
2023-03-06T03:33:40.840Z,99191.19
2023-03-06T03:36:10.668Z,99191.19
2023-03-06T03:38:42.851Z,99183.38
2023-03-06T03:41:11.455Z,99175.59
2023-03-06T03:43:40.831Z,99172.09
2023-03-06T03:46:09.990Z,99170.38
2023-03-06T03:48:38.233Z,99166.03
2023-03-06T03:51:08.041Z,99161.69
2023-03-06T03:53:38.958Z,99161.75
2023-03-06T03:56:08.329Z,99155.69
2023-03-06T03:58:45.358Z,99144.44
2023-03-06T04:01:13.771Z,99151.34
2023-03-06T04:03:42.048Z,99143.56
2023-03-06T04:06:11.654Z,99134.88
2023-03-06T04:08:40.685Z,99134.00
2023-03-06T04:11:08.909Z,99132.31
2023-03-06T04:13:36.958Z,99127.09
2023-03-06T04:16:08.867Z,99127.03
2023-03-06T04:18:39.398Z,99116.59
2023-03-06T04:21:09.858Z,99113.94
2023-03-06T04:23:38.635Z,99105.22
2023-03-06T04:26:07.466Z,99104.22
2023-03-06T04:28:35.712Z,99098.91
2023-03-06T04:31:05.052Z,99091.03
2023-03-06T04:33:35.149Z,99084.91
2023-03-06T04:36:03.317Z,99083.13
2023-03-06T04:38:34.333Z,99084.81
2023-03-06T04:41:04.941Z,99076.97
2023-03-06T04:43:33.082Z,99071.63
2023-03-06T04:46:01.234Z,99082.84
2023-03-06T04:48:29.430Z,99071.50
2023-03-06T04:50:58.781Z,99061.00
2023-03-06T04:53:26.936Z,99072.25
2023-03-06T04:55:55.239Z,99062.72
2023-03-06T04:58:23.402Z,99066.97
2023-03-06T05:00:51.462Z,99063.56
2023-03-06T05:03:19.581Z,99058.31
2023-03-06T05:05:47.620Z,99061.75
2023-03-06T05:08:18.344Z,99051.25
2023-03-06T05:10:47.359Z,99047.75
2023-03-06T05:13:15.374Z,99047.75
2023-03-06T05:15:43.614Z,99046.97
2023-03-06T05:18:11.668Z,99044.34
2023-03-06T05:20:39.858Z,99041.84
2023-03-06T05:23:07.937Z,99039.25
2023-03-06T05:25:39.595Z,99035.81
2023-03-06T05:28:07.956Z,99041.00
2023-03-06T05:30:36.238Z,99032.41
2023-03-06T05:33:04.510Z,99033.34
2023-03-06T05:35:32.924Z,99021.28
2023-03-06T05:38:01.044Z,99022.22
2023-03-06T05:40:29.098Z,99021.41
2023-03-06T05:42:58.526Z,99015.38
2023-03-06T05:45:26.750Z,99015.47
2023-03-06T05:47:55.069Z,99018.94
2023-03-06T05:50:23.071Z,99012.94
2023-03-06T05:52:51.541Z,99008.63
2023-03-06T05:55:21.150Z,99012.03
2023-03-06T05:57:49.790Z,99012.84
2023-03-06T06:00:20.244Z,99009.25
2023-03-06T06:02:48.680Z,99003.13
2023-03-06T06:05:16.878Z,99002.34
2023-03-06T06:07:45.023Z,99008.38
2023-03-06T06:10:13.621Z,98998.84
2023-03-06T06:12:42.012Z,98997.94
2023-03-06T06:15:10.793Z,99006.53
2023-03-06T06:17:40.270Z,98999.56
2023-03-06T06:20:09.567Z,98994.28
2023-03-06T06:22:38.951Z,98991.59
2023-03-06T06:25:08.506Z,98999.41
2023-03-06T06:27:36.776Z,98994.28
2023-03-06T06:30:05.646Z,98992.66
2023-03-06T06:32:33.800Z,98991.78
2023-03-06T06:35:03.871Z,98990.09
2023-03-06T06:37:31.971Z,98991.75
2023-03-06T06:40:00.034Z,98987.44
2023-03-06T06:42:34.612Z,98977.91
2023-03-06T06:45:06.975Z,98976.16
2023-03-06T06:47:37.165Z,98980.47
2023-03-06T06:50:07.510Z,98970.84
2023-03-06T06:52:35.933Z,98971.53
2023-03-06T06:55:04.107Z,98971.38
2023-03-06T06:57:32.204Z,98965.94
2023-03-06T07:00:00.342Z,98968.53
2023-03-06T07:02:28.477Z,98967.56
2023-03-06T07:05:04.188Z,98961.41
2023-03-06T07:07:36.648Z,98960.34
2023-03-06T07:10:07.019Z,98967.03
2023-03-06T07:12:35.495Z,98968.69
2023-03-06T07:15:04.609Z,98972.06
2023-03-06T07:17:32.820Z,98968.50
2023-03-06T07:20:00.963Z,98966.75
2023-03-06T07:22:31.966Z,98964.03
2023-03-06T07:25:06.991Z,98956.16
2023-03-06T07:27:35.242Z,98957.75
2023-03-06T07:30:03.582Z,98952.50
2023-03-06T07:32:31.838Z,98950.69
2023-03-06T07:35:18.728Z,98956.69
2023-03-06T07:37:47.407Z,98951.44
2023-03-06T07:40:16.991Z,98957.53
2023-03-06T07:42:45.190Z,98961.78
2023-03-06T07:45:17.888Z,98956.44
2023-03-06T07:47:46.978Z,98952.94
2023-03-06T07:50:15.073Z,98958.03
2023-03-06T07:52:43.252Z,98951.94
2023-03-06T07:55:12.166Z,98946.66
2023-03-06T07:57:41.947Z,98956.97
2023-03-06T08:00:13.439Z,98946.38
2023-03-06T08:02:42.710Z,98960.13
2023-03-06T08:05:14.775Z,98952.13
2023-03-06T08:07:43.785Z,98952.06
2023-03-06T08:10:15.419Z,98953.75
2023-03-06T08:12:45.097Z,98946.84
2023-03-06T08:15:14.124Z,98951.25
2023-03-06T08:17:42.338Z,98944.31
2023-03-06T08:20:11.489Z,98945.09
2023-03-06T08:22:39.888Z,98945.81
2023-03-06T08:25:09.016Z,98943.88
2023-03-06T08:27:37.318Z,98944.41
2023-03-06T08:30:07.896Z,98947.44
2023-03-06T08:32:37.139Z,98940.19
2023-03-06T08:35:05.612Z,98942.66
2023-03-06T08:37:33.772Z,98946.06
2023-03-06T08:40:03.662Z,98943.34
2023-03-06T08:42:32.222Z,98945.94
2023-03-06T08:45:00.322Z,98945.09
2023-03-06T08:47:29.884Z,98939.88
2023-03-06T08:50:00.199Z,98946.59
2023-03-06T08:52:28.836Z,98941.84
2023-03-06T08:54:58.026Z,98948.47
2023-03-06T08:57:26.286Z,98942.94
2023-03-06T08:59:54.341Z,98936.53
2023-03-06T09:02:22.575Z,98946.81
2023-03-06T09:04:52.123Z,98939.13
2023-03-06T09:07:20.260Z,98944.53
2023-03-06T09:09:48.335Z,98939.31
2023-03-06T09:12:16.548Z,98930.59
2023-03-06T09:14:44.704Z,98932.84
2023-03-06T09:17:12.798Z,98929.81
2023-03-06T09:19:40.905Z,98929.47
2023-03-06T09:22:10.519Z,98927.69
2023-03-06T09:24:38.655Z,98919.66
2023-03-06T09:27:06.782Z,98920.28
2023-03-06T09:29:34.918Z,98912.09
2023-03-06T09:32:03.155Z,98900.44
2023-03-06T09:34:31.371Z,98895.44
2023-03-06T09:36:59.652Z,98898.41
2023-03-06T09:39:29.260Z,98899.41
2023-03-06T09:41:58.694Z,98890.81
2023-03-06T09:44:29.800Z,98896.72
2023-03-06T09:47:14.775Z,98892.75
2023-03-06T09:49:57.170Z,98885.69
2023-03-06T09:52:32.808Z,98891.00
2023-03-06T09:55:11.545Z,98880.97
2023-03-06T09:57:44.617Z,98889.72
2023-03-06T10:00:16.137Z,98882.63
2023-03-06T10:02:47.317Z,98881.34
2023-03-06T10:05:20.758Z,98872.84
2023-03-06T10:07:55.188Z,98868.22
2023-03-06T10:10:28.269Z,98880.28
2023-03-06T10:13:04.636Z,98875.63
2023-03-06T10:15:36.240Z,98870.84
2023-03-06T10:18:05.889Z,98876.59
2023-03-06T10:20:38.459Z,98870.19
2023-03-06T10:23:24.990Z,98862.53
2023-03-06T10:26:01.105Z,98858.72
2023-03-06T10:28:33.764Z,98864.41
2023-03-06T10:31:09.274Z,98856.09
2023-03-06T10:33:50.418Z,98860.44
2023-03-06T10:36:20.311Z,98858.44
2023-03-06T10:38:49.443Z,98852.16
2023-03-06T10:41:25.148Z,98854.19
2023-03-06T10:44:30.132Z,98856.69
2023-03-06T10:46:58.275Z,98851.59
2023-03-06T10:49:31.183Z,98858.03
2023-03-06T10:52:03.073Z,98857.91
2023-03-06T10:54:33.103Z,98849.78
2023-03-06T10:57:20.039Z,98849.06
2023-03-06T10:59:55.855Z,98848.34
2023-03-06T11:02:29.492Z,98845.75
2023-03-06T11:04:59.942Z,98838.66
2023-03-06T11:07:29.175Z,98833.22
2023-03-06T11:10:05.227Z,98832.00
2023-03-06T11:12:36.480Z,98825.66
2023-03-06T11:15:17.495Z,98817.78
2023-03-06T11:17:56.093Z,98831.69
2023-03-06T11:20:27.325Z,98822.63
2023-03-06T11:23:00.608Z,98821.28
2023-03-06T11:25:33.543Z,98812.53
2023-03-06T11:28:07.785Z,98817.94
2023-03-06T11:30:43.328Z,98817.38
2023-03-06T11:33:23.107Z,98818.06
2023-03-06T11:35:57.942Z,98822.38
2023-03-06T11:38:35.391Z,98823.41
2023-03-06T11:41:08.906Z,98821.59
2023-03-06T11:43:49.795Z,98816.03
2023-03-06T11:46:24.321Z,98819.00
2023-03-06T11:48:55.287Z,98813.84
2023-03-06T11:51:26.888Z,98805.06
2023-03-06T11:53:55.696Z,98812.44
2023-03-06T11:56:32.764Z,98809.44
2023-03-06T11:59:14.515Z,98808.94
2023-03-06T12:01:49.067Z,98810.38
2023-03-06T12:04:39.412Z,98802.31
2023-03-06T12:07:21.509Z,98795.38
2023-03-06T12:09:57.995Z,98796.66
2023-03-06T12:12:41.448Z,98790.19
2023-03-06T12:15:23.687Z,98788.91
2023-03-06T12:18:16.402Z,98792.94
2023-03-06T12:20:54.993Z,98786.06
2023-03-06T12:23:37.248Z,98780.28
2023-03-06T12:26:20.506Z,98780.38
2023-03-06T12:29:06.979Z,98776.72
2023-03-06T12:31:47.440Z,98772.03
2023-03-06T12:34:24.739Z,98767.91
2023-03-06T12:37:03.128Z,98762.41
2023-03-06T12:39:44.805Z,98758.97
2023-03-06T12:42:25.797Z,98758.59
2023-03-06T12:45:11.720Z,98761.66
2023-03-06T12:47:45.550Z,98760.59
2023-03-06T12:50:20.275Z,98746.75
2023-03-06T12:52:49.378Z,98739.50
2023-03-06T12:55:23.147Z,98745.78
2023-03-06T12:57:53.051Z,98739.94
2023-03-06T13:01:03.527Z,98731.31
2023-03-06T13:03:44.927Z,98724.19
2023-03-06T13:06:39.261Z,98722.34
2023-03-06T13:09:20.403Z,98735.91
2023-03-06T13:12:18.142Z,98726.97
2023-03-06T13:14:57.484Z,98724.00
2023-03-06T13:17:28.813Z,98717.22
2023-03-06T13:20:30.290Z,98720.16
2023-03-06T13:22:59.993Z,98714.81
2023-03-06T13:25:47.886Z,98714.31
2023-03-06T13:28:41.372Z,98702.06
2023-03-06T13:31:21.306Z,98712.19
2023-03-06T13:33:58.517Z,98708.69
2023-03-06T13:36:29.795Z,98703.22
2023-03-06T13:39:02.649Z,98704.84
2023-03-06T13:41:56.540Z,98693.13
2023-03-06T13:44:44.845Z,98695.13
2023-03-06T13:48:06.456Z,98699.06
2023-03-06T13:50:37.667Z,98693.81
2023-03-06T13:53:38.029Z,98685.63
2023-03-06T13:56:33.009Z,98682.41
2023-03-06T13:59:20.866Z,98685.72
2023-03-06T14:02:01.887Z,98671.75
2023-03-06T14:04:38.160Z,98682.06
2023-03-06T14:07:23.478Z,98673.91
2023-03-06T14:10:10.837Z,98667.69
2023-03-06T14:12:44.294Z,98675.06
2023-03-06T14:15:19.694Z,98670.53
2023-03-06T14:17:55.908Z,98668.81
2023-03-06T14:20:33.133Z,98664.34
2023-03-06T14:23:24.304Z,98671.44
2023-03-06T14:25:59.343Z,98674.00
2023-03-06T14:28:30.343Z,98672.25
2023-03-06T14:31:00.968Z,98673.59
2023-03-06T14:33:33.328Z,98669.38
2023-03-06T14:36:04.051Z,98670.94
2023-03-06T14:38:37.648Z,98670.09
2023-03-06T14:41:07.120Z,98667.53
2023-03-06T14:43:36.560Z,98671.16
2023-03-06T14:46:06.525Z,98661.81
2023-03-06T14:48:41.302Z,98670.78
2023-03-06T14:51:17.650Z,98658.00
2023-03-06T14:53:48.531Z,98653.91
2023-03-06T14:56:19.868Z,98653.34
2023-03-06T14:58:55.092Z,98658.00
2023-03-06T15:01:28.932Z,98650.50
2023-03-06T15:04:00.759Z,98650.22
2023-03-06T15:06:34.423Z,98654.31
2023-03-06T15:09:07.861Z,98650.31
2023-03-06T15:11:56.276Z,98650.47
2023-03-06T15:14:33.502Z,98640.13
2023-03-06T15:17:29.118Z,98641.91
2023-03-06T15:19:58.774Z,98638.59
2023-03-06T15:22:31.001Z,98640.41
2023-03-06T15:25:20.889Z,98636.09
2023-03-06T15:27:51.060Z,98637.00
2023-03-06T15:30:26.797Z,98637.16
2023-03-06T15:33:10.624Z,98637.28
2023-03-06T15:35:56.992Z,98634.00
2023-03-06T15:38:32.856Z,98630.09
2023-03-06T15:41:03.225Z,98631.38
2023-03-06T15:43:35.398Z,98628.19
2023-03-06T15:46:07.214Z,98625.16
2023-03-06T15:48:35.859Z,98620.19
2023-03-06T15:51:04.921Z,98625.59
2023-03-06T15:53:33.178Z,98624.09
2023-03-06T15:56:01.372Z,98622.53
2023-03-06T15:58:32.737Z,98618.28
2023-03-06T16:01:01.096Z,98618.47
2023-03-06T16:03:30.641Z,98612.47
2023-03-06T16:05:58.953Z,98605.66
2023-03-06T16:08:27.180Z,98612.72
2023-03-06T16:10:55.576Z,98616.22
2023-03-06T16:13:27.847Z,98599.00
2023-03-06T16:15:56.402Z,98606.84
2023-03-06T16:18:24.589Z,98612.97
2023-03-06T16:20:54.219Z,98609.56
2023-03-06T16:23:22.457Z,98606.06
2023-03-06T16:25:50.843Z,98595.72
2023-03-06T16:28:19.336Z,98601.06
2023-03-06T16:30:47.824Z,98602.00
2023-03-06T16:33:16.094Z,98595.97
2023-03-06T16:35:46.704Z,98590.75
2023-03-06T16:38:16.811Z,98599.56
2023-03-06T16:40:45.414Z,98590.97
2023-03-06T16:43:16.226Z,98591.00
2023-03-06T16:45:45.189Z,98594.53
2023-03-06T16:48:18.647Z,98595.50
2023-03-06T16:50:47.004Z,98594.66
2023-03-06T16:53:16.623Z,98594.69
2023-03-06T16:55:44.806Z,98597.31
2023-03-06T16:58:14.082Z,98587.84
2023-03-06T17:00:42.296Z,98596.59
2023-03-06T17:03:10.556Z,98587.91
2023-03-06T17:05:39.560Z,98590.53
2023-03-06T17:08:07.720Z,98587.91
2023-03-06T17:10:40.176Z,98585.41
2023-03-06T17:13:08.655Z,98584.56
2023-03-06T17:15:36.860Z,98588.16
2023-03-06T17:18:05.307Z,98591.75
2023-03-06T17:20:33.993Z,98586.63
2023-03-06T17:23:02.291Z,98588.47
2023-03-06T17:25:30.477Z,98578.16
2023-03-06T17:27:59.946Z,98580.81
2023-03-06T17:30:28.135Z,98579.19
2023-03-06T17:32:58.248Z,98572.31
2023-03-06T17:35:26.644Z,98576.75
2023-03-06T17:37:54.932Z,98579.50
2023-03-06T17:40:23.109Z,98576.94
2023-03-06T17:42:51.829Z,98580.59
2023-03-06T17:45:21.257Z,98580.69
2023-03-06T17:47:49.530Z,98580.81
2023-03-06T17:50:17.915Z,98577.44
2023-03-06T17:52:46.190Z,98575.84
2023-03-06T17:55:14.556Z,98576.84
2023-03-06T17:57:42.893Z,98582.97
2023-03-06T18:00:12.080Z,98576.97
2023-03-06T18:02:42.305Z,98578.84
2023-03-06T18:05:10.860Z,98579.81
2023-03-06T18:07:39.212Z,98578.22
2023-03-06T18:10:07.817Z,98576.53
2023-03-06T18:12:35.985Z,98575.75
2023-03-06T18:15:04.207Z,98572.44
2023-03-06T18:17:32.429Z,98577.81
2023-03-06T18:20:01.880Z,98573.59
2023-03-06T18:22:30.144Z,98578.03
2023-03-06T18:24:58.262Z,98564.25
2023-03-06T18:27:26.392Z,98578.25
2023-03-06T18:29:55.574Z,98579.16
2023-03-06T18:32:23.779Z,98571.38
2023-03-06T18:34:51.977Z,98561.00
2023-03-06T18:37:21.712Z,98568.84
2023-03-06T18:39:49.963Z,98568.72
2023-03-06T18:42:18.502Z,98561.56
2023-03-06T18:44:48.332Z,98564.19
2023-03-06T18:47:16.560Z,98560.69
2023-03-06T18:49:46.121Z,98560.63
2023-03-06T18:52:14.549Z,98555.28
2023-03-06T18:54:43.944Z,98559.56
2023-03-06T18:57:12.374Z,98544.78
2023-03-06T18:59:40.639Z,98541.31
2023-03-06T19:02:09.145Z,98555.28
2023-03-06T19:04:38.108Z,98554.44
2023-03-06T19:07:06.619Z,98553.50
2023-03-06T19:09:34.897Z,98543.91
2023-03-06T19:12:04.747Z,98545.72
2023-03-06T19:14:32.900Z,98533.66
2023-03-06T19:17:01.970Z,98542.31
2023-03-06T19:19:30.100Z,98540.63
2023-03-06T19:21:59.465Z,98536.41
2023-03-06T19:24:27.952Z,98535.66
2023-03-06T19:26:56.216Z,98539.16
2023-03-06T19:29:25.569Z,98538.25
2023-03-06T19:31:57.141Z,98533.94
2023-03-06T19:34:25.693Z,98544.38
2023-03-06T19:36:53.803Z,98532.25
2023-03-06T19:39:21.924Z,98537.47
2023-03-06T19:41:50.094Z,98534.91
2023-03-06T19:44:18.224Z,98534.06
2023-03-06T19:46:47.605Z,98532.28
2023-03-06T19:49:18.179Z,98534.06
2023-03-06T19:51:46.464Z,98529.69
2023-03-06T19:54:15.598Z,98523.63
2023-03-06T19:56:43.715Z,98530.56
2023-03-06T19:59:11.864Z,98534.06
2023-03-06T20:01:40.492Z,98520.25
2023-03-06T20:04:10.319Z,98530.66
2023-03-06T20:06:38.944Z,98528.13
2023-03-06T20:09:09.245Z,98527.28
2023-03-06T20:11:37.714Z,98525.59
2023-03-06T20:14:07.840Z,98523.84
2023-03-06T20:16:37.351Z,98520.41
2023-03-06T20:19:06.697Z,98527.34
2023-03-06T20:21:38.076Z,98515.19
2023-03-06T20:24:10.443Z,98517.88
2023-03-06T20:26:38.945Z,98515.25
2023-03-06T20:29:07.444Z,98514.47
2023-03-06T20:31:35.757Z,98501.44
2023-03-06T20:34:05.911Z,98506.75
2023-03-06T20:36:37.205Z,98514.63
2023-03-06T20:39:07.656Z,98496.47
2023-03-06T20:41:36.312Z,98505.19
2023-03-06T20:44:06.252Z,98500.84
2023-03-06T20:46:35.312Z,98500.00
2023-03-06T20:49:03.626Z,98502.69
2023-03-06T20:51:33.901Z,98503.59
2023-03-06T20:54:03.837Z,98506.19
2023-03-06T20:56:34.156Z,98501.06
2023-03-06T20:59:03.028Z,98510.50
2023-03-06T21:01:33.167Z,98511.56
2023-03-06T21:04:04.379Z,98507.41
2023-03-06T21:06:33.255Z,98516.41
2023-03-06T21:09:03.984Z,98506.31
2023-03-06T21:11:32.229Z,98502.28
2023-03-06T21:14:00.975Z,98509.41
2023-03-06T21:16:30.273Z,98502.72
2023-03-06T21:19:00.268Z,98508.88
2023-03-06T21:21:31.536Z,98507.28
2023-03-06T21:24:00.152Z,98512.47
2023-03-06T21:26:33.719Z,98496.16
2023-03-06T21:29:02.869Z,98493.63
2023-03-06T21:31:31.946Z,98491.16
2023-03-06T21:34:18.432Z,98496.25
2023-03-06T21:37:05.049Z,98490.41
2023-03-06T21:39:33.180Z,98490.50
2023-03-06T21:42:02.832Z,98494.88
2023-03-06T21:44:31.035Z,98489.66
2023-03-06T21:46:59.973Z,98500.88
2023-03-06T21:49:29.340Z,98495.72
2023-03-06T21:51:57.602Z,98495.72
2023-03-06T21:54:26.894Z,98497.41
2023-03-06T21:56:54.984Z,98492.28
2023-03-06T21:59:24.452Z,98498.31
2023-03-06T22:01:52.550Z,98487.06
2023-03-06T22:04:20.757Z,98489.75
2023-03-06T22:06:48.897Z,98490.09
2023-03-06T22:09:19.038Z,98481.63
2023-03-06T22:11:47.213Z,98484.31
2023-03-06T22:14:15.850Z,98472.22
2023-03-06T22:16:45.313Z,98471.44
2023-03-06T22:19:13.451Z,98467.22
2023-03-06T22:21:41.681Z,98463.09
2023-03-06T22:24:09.850Z,98460.81
2023-03-06T22:26:37.962Z,98462.63
2023-03-06T22:29:06.100Z,98463.47
2023-03-06T22:31:34.265Z,98462.56
2023-03-06T22:34:03.677Z,98453.00
2023-03-06T22:36:32.205Z,98456.50
2023-03-06T22:39:02.078Z,98446.16
2023-03-06T22:41:30.287Z,98439.34
2023-03-06T22:43:58.872Z,98435.16
2023-03-06T22:46:28.022Z,98437.72
2023-03-06T22:48:57.309Z,98429.09
2023-03-06T22:51:28.087Z,98436.97
2023-03-06T22:53:56.463Z,98429.09
2023-03-06T22:56:25.407Z,98429.94
2023-03-06T22:58:53.674Z,98430.78
2023-03-06T23:01:25.061Z,98422.97
2023-03-06T23:03:55.225Z,98424.75
2023-03-06T23:06:26.853Z,98422.97
2023-03-06T23:08:57.274Z,98426.47
2023-03-06T23:11:27.803Z,98429.41
2023-03-06T23:14:15.638Z,98427.97
2023-03-06T23:17:02.169Z,98430.59
2023-03-06T23:19:50.768Z,98427.16
2023-03-06T23:22:38.501Z,98434.16
2023-03-06T23:25:24.862Z,98431.63
2023-03-06T23:27:53.017Z,98435.97
2023-03-06T23:30:21.254Z,98438.06
2023-03-06T23:32:49.369Z,98445.63
2023-03-06T23:35:17.992Z,98439.09
2023-03-06T23:37:47.494Z,98447.31
2023-03-06T23:40:16.448Z,98445.00
2023-03-06T23:42:44.727Z,98434.91
2023-03-06T23:45:13.169Z,98433.41
2023-03-06T23:47:42.199Z,98438.84
2023-03-06T23:50:11.239Z,98438.19
2023-03-06T23:52:39.447Z,98433.22
2023-03-06T23:55:10.088Z,98430.06
2023-03-06T23:57:38.208Z,98431.97
